Home   Weather   Romania   Sibiu   Past weeks
Flag for Romania

Past Weather in Sibiu, Romania — Yesterday and Last 2 Weeks

Currently: 79 °F. Passing clouds. (Weather station: Sibiu Airport, Romania). See more current weather

Past Weather in Sibiu — Graph

°F

Sibiu Temperature Yesterday

Maximum temperature yesterday: 88 °F (at 3:30 pm)
Minimum temperature yesterday: 61 °F (at 5:00 am)
Average temperature yesterday: 75 °F

High & Low Weather Summary for the Past Weeks

 TemperatureHumidityPressure
High90 °F (Jun 19, 5:30 pm)100% (Jun 9, 6:00 am)30.18 "Hg (Jun 9, 6:00 am)
Low50 °F (Jun 16, 5:00 am)35% (Jun 21, 3:30 pm)29.68 "Hg (Jun 10, 7:30 pm)
Average70 °F72%29.97 "Hg
* Reported Jun 7 9:00 am — Jun 22 9:00 am, Sibiu. Weather by CustomWeather, © 2024

Note: Actual official high and low records may vary slightly from our data, if they occured in-between our weather recording intervals... More about our weather records

Sibiu Weather History for the Previous 24 Hours

Scroll right to see more
 ConditionsComfort  
Time TempWeatherWind HumidityBarometerVisibility
9:00 am
Sat, Jun 22
75 °FPassing clouds.3 mph65%29.95 "HgN/A
8:30 am72 °FSunny.1 mph73%29.95 "Hg10 mi
8:00 am70 °FSunny.No wind78%29.98 "Hg10 mi
7:30 am68 °FSunny.No wind83%29.98 "Hg10 mi
7:00 am68 °FSunny.1 mph83%29.95 "Hg10 mi
6:30 am64 °FSunny.5 mph88%29.95 "Hg10 mi
5:30 am63 °FClear.3 mph94%29.98 "Hg10 mi
5:00 am63 °FClear.No wind94%29.98 "Hg10 mi
4:30 am63 °FClear.No wind94%29.98 "Hg10 mi
4:00 am63 °FClear.No wind94%29.98 "Hg10 mi
3:30 am64 °FClear.No wind88%30.01 "Hg10 mi
3:00 am64 °FClear.No wind88%30.01 "Hg10 mi
2:30 am64 °FClear.1 mph88%30.01 "Hg10 mi
2:00 am68 °FClear.No wind83%30.01 "Hg10 mi
1:30 am66 °FClear.No wind88%30.01 "Hg10 mi
1:00 am68 °FClear.1 mph83%30.01 "Hg10 mi
12:00 am68 °FClear.3 mph83%30.01 "Hg10 mi
11:00 pm
Fri, Jun 21
70 °FClear.3 mph83%30.01 "Hg10 mi
10:30 pm70 °FClear.3 mph83%30.01 "Hg10 mi
10:00 pm73 °FClear.5 mph74%30.04 "Hg10 mi
9:30 pm73 °FPassing clouds.3 mph83%30.01 "HgN/A
9:00 pm81 °FPassing clouds.3 mph54%30.01 "HgN/A
8:30 pm82 °FSunny.No wind48%30.01 "Hg10 mi
8:00 pm84 °FPassing clouds.3 mph48%30.04 "HgN/A
7:30 pm86 °FPassing clouds.6 mph43%30.04 "HgN/A
7:00 pm86 °FSunny.6 mph43%30.04 "Hg10 mi
6:30 pm88 °FPassing clouds.5 mph35%30.04 "HgN/A
6:00 pm88 °FPassing clouds.3 mph35%30.04 "HgN/A
5:30 pm88 °FPassing clouds.5 mph38%30.04 "HgN/A
5:00 pm88 °FPassing clouds.3 mph38%30.07 "HgN/A
4:30 pm88 °FPassing clouds.3 mph35%30.07 "HgN/A
4:00 pm88 °FSunny.3 mph35%30.07 "Hg10 mi
3:30 pm88 °FPassing clouds.5 mph35%30.09 "HgN/A
3:00 pm86 °FPassing clouds.5 mph38%30.09 "HgN/A
2:30 pm86 °FPassing clouds.5 mph43%30.09 "HgN/A
2:00 pm84 °FPassing clouds.3 mph51%30.09 "HgN/A
1:30 pm84 °FSunny.No wind51%30.12 "Hg10 mi
1:00 pm82 °FPassing clouds.3 mph55%30.12 "HgN/A
12:00 pm79 °FPassing clouds.3 mph61%30.12 "HgN/A
11:00 am79 °FSunny.1 mph58%30.12 "Hg10 mi
10:30 am75 °FSunny.1 mph65%30.12 "Hg10 mi
10:00 am75 °FSunny.1 mph69%30.12 "Hg10 mi
Weather by CustomWeather, © 2024

See weather overview